createdAt,value
2018-12-29T00:00:03.332Z,-1.3
2018-12-29T00:15:02.811Z,-1.2
2018-12-29T00:30:03.134Z,-1.1
2018-12-29T00:45:03.011Z,-1.2
2018-12-29T01:00:02.889Z,-1.4
2018-12-29T01:15:09.620Z,-1.2
2018-12-29T01:30:02.901Z,-1.7
2018-12-29T01:45:03.225Z,-1.6
2018-12-29T02:00:02.501Z,-1.4
2018-12-29T02:15:02.991Z,-1.2
2018-12-29T02:30:03.364Z,-0.9
2018-12-29T02:45:02.649Z,-0.9
2018-12-29T03:00:02.979Z,-0.9
2018-12-29T03:15:03.170Z,-1.1
2018-12-29T03:30:02.588Z,-1.1
2018-12-29T03:45:02.910Z,-1
2018-12-29T04:00:03.233Z,-1.2
2018-12-29T04:15:02.635Z,-1.2
2018-12-29T04:30:02.927Z,-1.2
2018-12-29T04:45:03.373Z,-1.1
2018-12-29T05:00:02.648Z,-1.1
2018-12-29T05:15:02.903Z,-1.2
2018-12-29T05:30:03.213Z,-1.2
2018-12-29T05:45:03.692Z,-1.4
2018-12-29T06:00:02.806Z,-1.4
2018-12-29T06:15:03.082Z,-1.5
2018-12-29T06:30:02.724Z,-1.6
2018-12-29T06:45:03.023Z,-1.7
2018-12-29T07:00:03.196Z,-1.8
2018-12-29T07:15:02.925Z,-1.8
2018-12-29T07:30:03.391Z,-1.9
2018-12-29T07:45:02.730Z,-1.9
2018-12-29T08:00:03.137Z,-1.9
2018-12-29T08:15:02.410Z,-1.9
2018-12-29T08:30:02.685Z,-1.8
2018-12-29T08:45:03.119Z,-1.6
2018-12-29T09:00:02.727Z,-1.7
2018-12-29T09:15:02.963Z,-1.6
2018-12-29T09:30:03.507Z,-1.4
2018-12-29T09:45:02.741Z,-1.1
2018-12-29T10:00:02.997Z,-1
2018-12-29T10:15:03.299Z,-0.9
2018-12-29T10:30:02.672Z,-0.7
2018-12-29T10:45:02.867Z,-0.4
2018-12-29T11:00:03.158Z,-0.3
2018-12-29T11:15:03.460Z,-0.1
2018-12-29T11:30:02.793Z,0.1
2018-12-29T11:45:03.090Z,0
2018-12-29T12:00:03.416Z,0.1
2018-12-29T12:15:02.968Z,0.1
2018-12-29T12:30:03.400Z,0.1
2018-12-29T12:45:02.707Z,0.1
2018-12-29T13:00:02.968Z,0.1
2018-12-29T13:15:02.548Z,0.2
2018-12-29T13:30:02.976Z,0.4
2018-12-29T13:45:03.393Z,0.4
2018-12-29T14:00:02.623Z,0.6
2018-12-29T14:15:03.092Z,0.7
2018-12-29T14:30:03.408Z,0.7
2018-12-29T14:45:02.661Z,0.8
2018-12-29T15:00:02.979Z,0.6
2018-12-29T15:15:02.601Z,0.6
2018-12-29T15:30:02.976Z,0.4
2018-12-29T15:45:03.286Z,0.4
2018-12-29T16:00:02.623Z,0.4
2018-12-29T16:15:03.021Z,0.4
2018-12-29T16:30:03.391Z,0.3
2018-12-29T16:45:02.658Z,0.2
2018-12-29T17:00:02.986Z,0.2
2018-12-29T17:15:03.353Z,-0.1
2018-12-29T17:30:03.720Z,0
2018-12-29T17:45:02.822Z,-0.6
2018-12-29T18:00:03.154Z,-0.2
2018-12-29T18:15:03.431Z,-0.3
2018-12-29T18:30:02.803Z,-0.5
2018-12-29T18:45:03.073Z,-0.4
2018-12-29T19:00:03.373Z,-0.6
2018-12-29T19:15:02.712Z,-0.6
2018-12-29T19:30:03.373Z,-0.8
2018-12-29T19:45:02.578Z,-0.7
2018-12-29T20:00:02.893Z,-0.6
2018-12-29T20:15:02.492Z,-0.6
2018-12-29T20:30:03.134Z,-0.7
2018-12-29T20:45:02.687Z,-0.5
2018-12-29T21:00:03.007Z,-0.6
2018-12-29T21:15:03.213Z,-0.8
2018-12-29T21:30:02.582Z,-0.8
2018-12-29T21:45:02.914Z,-0.8
2018-12-29T22:00:03.198Z,-0.7
2018-12-29T22:15:02.574Z,-0.3
2018-12-29T22:30:02.970Z,-0.3
2018-12-29T22:45:03.396Z,-0.1
2018-12-29T23:00:02.632Z,0
2018-12-29T23:15:03.056Z,0
2018-12-29T23:30:02.577Z,-0.1
2018-12-29T23:45:03.134Z,-0.1
